Santa Maria, California
Current Conditions -  °F | °C
As of 7:51 PM on Thursday 27 Nov 2014 (Local Time) from KSMX Reporting Station
Clear Clear  
Wind Chill: 56°   Ceiling: Unl
Heat Index: 56°   Visibility: 10mi
Dew Point: 45°   Wind: 3mph
Humidity: 67%   Direction: 170°S
Pressure: 30.06"   Gusts: NA
Location:  34.95°N, 120.43°W
Report Text: KSMX 280351Z AUTO 17003KT 10SM CLR 13/07 A3006 RMK AO2 SLP180 T01330072 $
Loading
Personal Weather Stations






























Interactive Weather Map New forecast layout! Learn more

10-Day Weather Forecast

Advertisements
Track Severe Weather on mobile